UAL2066 KORD-KDCA
Flight info
| Callsign | UAL2066 |
|---|---|
| Flight time | N/A |
| Altitude | 39000 |
| Route | MOBLE ADIME OTENS ANEWA JERRI NUSMM BUCKO FRDMM6 |
| Aircraft | A319/M-SDE3FGHIRWY/LB1 |
Departure
| Time | 2026-05-05 18:36 |
|---|---|
| Airport | Chicago O'Hare International Airport (KORD) |
Arrival
| Time | N/A |
|---|---|
| Airport | Ronald Reagan Washington National Airport (KDCA) |
| Time | Latitude | Longitude | Altitude | Speed | Heading |
|---|---|---|---|---|---|
| 2026-05-05 18:08 | 41.97505 | -87.90872 | 669 ft | 0 kts | 169° |
| 2026-05-05 18:25 | 41.97507 | -87.90873 | 668 ft | 1 kts | 169° |
| 2026-05-05 18:25 | 41.97524 | -87.90877 | 667 ft | 3 kts | 177° |
| 2026-05-05 18:26 | 41.97544 | -87.90876 | 667 ft | 3 kts | 191° |
| 2026-05-05 18:26 | 41.97563 | -87.90868 | 665 ft | 3 kts | 217° |
| 2026-05-05 18:26 | 41.97575 | -87.90851 | 669 ft | 2 kts | 250° |
| 2026-05-05 18:26 | 41.97580 | -87.90832 | 666 ft | 1 kts | 250° |
| 2026-05-05 18:27 | 41.97580 | -87.90831 | 667 ft | 0 kts | 250° |
| 2026-05-05 18:29 | 41.97580 | -87.90834 | 666 ft | 2 kts | 250° |
| 2026-05-05 18:29 | 41.97571 | -87.90864 | 669 ft | 5 kts | 250° |
| 2026-05-05 18:29 | 41.97554 | -87.90927 | 667 ft | 9 kts | 249° |
| 2026-05-05 18:30 | 41.97527 | -87.91020 | 669 ft | 13 kts | 248° |
| 2026-05-05 18:30 | 41.97450 | -87.91017 | 668 ft | 14 kts | 141° |
| 2026-05-05 18:30 | 41.97367 | -87.90924 | 669 ft | 17 kts | 138° |
| 2026-05-05 18:30 | 41.97278 | -87.90802 | 668 ft | 20 kts | 129° |
| 2026-05-05 18:31 | 41.97218 | -87.90632 | 669 ft | 22 kts | 98° |
| 2026-05-05 18:31 | 41.97206 | -87.90421 | 669 ft | 23 kts | 94° |
| 2026-05-05 18:31 | 41.97205 | -87.90192 | 669 ft | 26 kts | 89° |
| 2026-05-05 18:31 | 41.97206 | -87.89943 | 669 ft | 28 kts | 89° |
| 2026-05-05 18:32 | 41.97255 | -87.89734 | 669 ft | 14 kts | 111° |
| 2026-05-05 18:32 | 41.97236 | -87.89610 | 668 ft | 15 kts | 60° |
| 2026-05-05 18:32 | 41.97203 | -87.89501 | 666 ft | 14 kts | 120° |
| 2026-05-05 18:32 | 41.97195 | -87.89364 | 669 ft | 16 kts | 90° |
| 2026-05-05 18:33 | 41.97194 | -87.89208 | 669 ft | 18 kts | 89° |
| 2026-05-05 18:33 | 41.97195 | -87.89036 | 669 ft | 19 kts | 90° |
| 2026-05-05 18:33 | 41.97195 | -87.88847 | 669 ft | 21 kts | 89° |
| 2026-05-05 18:33 | 41.97198 | -87.88639 | 669 ft | 23 kts | 91° |
| 2026-05-05 18:34 | 41.97196 | -87.88412 | 669 ft | 25 kts | 89° |
| 2026-05-05 18:34 | 41.97197 | -87.88171 | 669 ft | 27 kts | 89° |
| 2026-05-05 18:34 | 41.97135 | -87.88039 | 669 ft | 16 kts | 179° |
| 2026-05-05 18:34 | 41.97018 | -87.88033 | 671 ft | 12 kts | 165° |
| 2026-05-05 18:35 | 41.96965 | -87.88015 | 670 ft | 8 kts | 206° |
| 2026-05-05 18:35 | 41.96880 | -87.88110 | 669 ft | 36 kts | 221° |
| 2026-05-05 18:35 | 41.96533 | -87.88524 | 668 ft | 96 kts | 221° |
| 2026-05-05 18:35 | 41.95890 | -87.89285 | 698 ft | 146 kts | 223° |
| 2026-05-05 18:36 | 41.95128 | -87.90163 | 1361 ft | 145 kts | 216° |
| 2026-05-05 18:36 | 41.94112 | -87.90388 | 2042 ft | 159 kts | 168° |
| 2026-05-05 18:36 | 41.93101 | -87.89584 | 2516 ft | 183 kts | 142° |
| 2026-05-05 18:36 | 41.92173 | -87.88279 | 2999 ft | 202 kts | 132° |
| 2026-05-05 18:37 | 41.91481 | -87.86566 | 3381 ft | 230 kts | 101° |
| 2026-05-05 18:37 | 41.91400 | -87.84308 | 3926 ft | 256 kts | 86° |
| 2026-05-05 18:37 | 41.91559 | -87.81850 | 4719 ft | 274 kts | 82° |
| 2026-05-05 18:37 | 41.91783 | -87.79263 | 5811 ft | 283 kts | 82° |
| 2026-05-05 18:38 | 41.92001 | -87.76570 | 6726 ft | 294 kts | 84° |
| 2026-05-05 18:38 | 41.92187 | -87.73791 | 7611 ft | 304 kts | 86° |
| 2026-05-05 18:38 | 41.92340 | -87.70926 | 8509 ft | 312 kts | 88° |
| 2026-05-05 18:38 | 41.92468 | -87.67982 | 9414 ft | 320 kts | 89° |
| 2026-05-05 18:39 | 41.92580 | -87.64953 | 10193 ft | 332 kts | 89° |
| 2026-05-05 18:39 | 41.92688 | -87.61742 | 10592 ft | 355 kts | 89° |
| 2026-05-05 18:39 | 41.92799 | -87.58380 | 11265 ft | 364 kts | 89° |
| 2026-05-05 18:39 | 41.92919 | -87.54956 | 12053 ft | 371 kts | 88° |
| 2026-05-05 18:40 | 41.93047 | -87.51472 | 12857 ft | 376 kts | 88° |
| 2026-05-05 18:40 | 41.93175 | -87.47941 | 13654 ft | 381 kts | 88° |
| 2026-05-05 18:40 | 41.93304 | -87.44361 | 14359 ft | 386 kts | 88° |
| 2026-05-05 18:40 | 41.93428 | -87.40729 | 15072 ft | 391 kts | 88° |
| 2026-05-05 18:41 | 41.93551 | -87.37062 | 15772 ft | 396 kts | 88° |
| 2026-05-05 18:41 | 41.93676 | -87.33352 | 16471 ft | 400 kts | 88° |
| 2026-05-05 18:41 | 41.93803 | -87.29600 | 17167 ft | 405 kts | 88° |
| 2026-05-05 18:41 | 41.93933 | -87.25794 | 17873 ft | 409 kts | 88° |
| 2026-05-05 18:42 | 41.94060 | -87.21957 | 18518 ft | 414 kts | 88° |
| 2026-05-05 18:42 | 41.94188 | -87.18071 | 19109 ft | 418 kts | 89° |
| 2026-05-05 18:42 | 41.94315 | -87.14148 | 19708 ft | 423 kts | 89° |
| 2026-05-05 18:42 | 41.94440 | -87.10177 | 20302 ft | 427 kts | 89° |
| 2026-05-05 18:43 | 41.94563 | -87.06172 | 20891 ft | 432 kts | 89° |
| 2026-05-05 18:43 | 41.94665 | -87.02127 | 21478 ft | 436 kts | 90° |
| 2026-05-05 18:43 | 41.94733 | -86.98035 | 22047 ft | 440 kts | 91° |
| 2026-05-05 18:43 | 41.94783 | -86.93957 | 22602 ft | 444 kts | 91° |
| 2026-05-05 18:44 | 41.94828 | -86.89791 | 23161 ft | 449 kts | 91° |
| 2026-05-05 18:44 | 41.94878 | -86.85579 | 23673 ft | 453 kts | 91° |
| 2026-05-05 18:44 | 41.94935 | -86.81323 | 24130 ft | 458 kts | 91° |
| 2026-05-05 18:44 | 41.94994 | -86.77032 | 24587 ft | 462 kts | 91° |
| 2026-05-05 18:45 | 41.95047 | -86.72681 | 25034 ft | 466 kts | 93° |
| 2026-05-05 18:45 | 41.94752 | -86.68340 | 25458 ft | 468 kts | 101° |
| 2026-05-05 18:45 | 41.94336 | -86.63991 | 25885 ft | 472 kts | 101° |
| 2026-05-05 18:45 | 41.93911 | -86.59598 | 26313 ft | 476 kts | 101° |
| 2026-05-05 18:46 | 41.93478 | -86.55172 | 26740 ft | 481 kts | 101° |
| 2026-05-05 18:46 | 41.93043 | -86.50696 | 27165 ft | 485 kts | 101° |
| 2026-05-05 18:46 | 41.92607 | -86.46189 | 27582 ft | 489 kts | 101° |
| 2026-05-05 18:46 | 41.92168 | -86.41648 | 28008 ft | 493 kts | 101° |
| 2026-05-05 18:47 | 41.91725 | -86.37065 | 28423 ft | 497 kts | 101° |
| 2026-05-05 18:47 | 41.91275 | -86.32450 | 28858 ft | 500 kts | 101° |
| 2026-05-05 18:47 | 41.90815 | -86.27797 | 29282 ft | 504 kts | 102° |
| 2026-05-05 18:47 | 41.90348 | -86.23115 | 29708 ft | 508 kts | 102° |
| 2026-05-05 18:48 | 41.89875 | -86.18403 | 30102 ft | 511 kts | 102° |
| 2026-05-05 18:48 | 41.89397 | -86.13663 | 30445 ft | 515 kts | 102° |
| 2026-05-05 18:48 | 41.88916 | -86.08885 | 30801 ft | 518 kts | 101° |
| 2026-05-05 18:48 | 41.88435 | -86.04090 | 31152 ft | 521 kts | 101° |
| 2026-05-05 18:49 | 41.87950 | -85.99259 | 31492 ft | 524 kts | 101° |
| 2026-05-05 18:49 | 41.87458 | -85.94399 | 31829 ft | 527 kts | 101° |
| 2026-05-05 18:49 | 41.86960 | -85.89518 | 32163 ft | 529 kts | 101° |
| 2026-05-05 18:49 | 41.86459 | -85.84624 | 32567 ft | 530 kts | 101° |
| 2026-05-05 18:50 | 41.85957 | -85.79724 | 33054 ft | 529 kts | 101° |
| 2026-05-05 18:50 | 41.85457 | -85.74847 | 33527 ft | 529 kts | 100° |
| 2026-05-05 18:50 | 41.84957 | -85.70025 | 33982 ft | 528 kts | 100° |
| 2026-05-05 18:50 | 41.84447 | -85.65145 | 34392 ft | 528 kts | 100° |
| 2026-05-05 18:51 | 41.83932 | -85.60260 | 34750 ft | 529 kts | 100° |
| 2026-05-05 18:51 | 41.83415 | -85.55378 | 35088 ft | 530 kts | 99° |
| 2026-05-05 18:51 | 41.82896 | -85.50480 | 35426 ft | 531 kts | 99° |
| 2026-05-05 18:51 | 41.82377 | -85.45578 | 35754 ft | 532 kts | 99° |
| 2026-05-05 18:52 | 41.81857 | -85.40670 | 36083 ft | 532 kts | 99° |
| 2026-05-05 18:52 | 41.81333 | -85.35748 | 36403 ft | 533 kts | 99° |
| 2026-05-05 18:52 | 41.80806 | -85.30832 | 36712 ft | 534 kts | 99° |
| 2026-05-05 18:52 | 41.80274 | -85.25890 | 37025 ft | 535 kts | 98° |
| 2026-05-05 18:53 | 41.79741 | -85.20972 | 37327 ft | 535 kts | 98° |
| 2026-05-05 18:53 | 41.79204 | -85.16040 | 37634 ft | 536 kts | 98° |
| 2026-05-05 18:53 | 41.78661 | -85.11074 | 37937 ft | 537 kts | 98° |
| 2026-05-05 18:53 | 41.78118 | -85.06121 | 38231 ft | 538 kts | 98° |
| 2026-05-05 18:54 | 41.77574 | -85.01166 | 38506 ft | 538 kts | 98° |
| 2026-05-05 18:54 | 41.77026 | -84.96207 | 38734 ft | 539 kts | 98° |
| 2026-05-05 18:54 | 41.76473 | -84.91248 | 38850 ft | 539 kts | 98° |
| 2026-05-05 18:54 | 41.75915 | -84.86285 | 38879 ft | 538 kts | 98° |
| 2026-05-05 18:55 | 41.74814 | -84.76466 | 38870 ft | 537 kts | 98° |
| 2026-05-05 18:55 | 41.73705 | -84.66588 | 38873 ft | 536 kts | 98° |
| 2026-05-05 18:56 | 41.72586 | -84.56731 | 38870 ft | 535 kts | 98° |
| 2026-05-05 18:56 | 41.71448 | -84.46886 | 38868 ft | 535 kts | 98° |
| 2026-05-05 18:57 | 41.70308 | -84.37046 | 38869 ft | 535 kts | 98° |
| 2026-05-05 18:57 | 41.69169 | -84.27230 | 38875 ft | 534 kts | 98° |
| 2026-05-05 18:58 | 41.68026 | -84.17465 | 38879 ft | 534 kts | 98° |
| 2026-05-05 18:58 | 41.66872 | -84.07661 | 38872 ft | 533 kts | 99° |
| 2026-05-05 18:59 | 41.65701 | -83.97878 | 38876 ft | 533 kts | 99° |
| 2026-05-05 18:59 | 41.64521 | -83.88094 | 38893 ft | 533 kts | 99° |
| 2026-05-05 19:00 | 41.63338 | -83.78328 | 38895 ft | 532 kts | 99° |
| 2026-05-05 19:00 | 41.62149 | -83.68568 | 38883 ft | 532 kts | 99° |
| 2026-05-05 19:01 | 41.60791 | -83.58862 | 38901 ft | 530 kts | 108° |
| 2026-05-05 19:01 | 41.58687 | -83.49426 | 38901 ft | 530 kts | 108° |
| 2026-05-05 19:02 | 41.56582 | -83.40009 | 38895 ft | 529 kts | 108° |
| 2026-05-05 19:02 | 41.54470 | -83.30595 | 38891 ft | 529 kts | 108° |
| 2026-05-05 19:03 | 41.52346 | -83.21202 | 38876 ft | 528 kts | 108° |
| 2026-05-05 19:03 | 41.50216 | -83.11834 | 38866 ft | 528 kts | 108° |
| 2026-05-05 19:04 | 41.48079 | -83.02460 | 38859 ft | 528 kts | 108° |
| 2026-05-05 19:04 | 41.45941 | -82.93101 | 38853 ft | 528 kts | 108° |
| 2026-05-05 19:05 | 41.44156 | -82.85329 | 38854 ft | 528 kts | 108° |
| 2026-05-05 19:05 | 41.41998 | -82.75974 | 38858 ft | 528 kts | 108° |
| 2026-05-05 19:06 | 41.39793 | -82.66658 | 38855 ft | 527 kts | 113° |
| 2026-05-05 19:06 | 41.36359 | -82.58143 | 38849 ft | 518 kts | 132° |
| 2026-05-05 19:07 | 41.31581 | -82.51108 | 38853 ft | 511 kts | 141° |
| 2026-05-05 19:07 | 41.26601 | -82.44358 | 38851 ft | 511 kts | 141° |
| 2026-05-05 19:08 | 41.21637 | -82.37607 | 38846 ft | 511 kts | 141° |
| 2026-05-05 19:08 | 41.16654 | -82.30847 | 38847 ft | 511 kts | 141° |
| 2026-05-05 19:09 | 41.11661 | -82.24110 | 38844 ft | 512 kts | 141° |
| 2026-05-05 19:09 | 41.06663 | -82.17394 | 38833 ft | 512 kts | 141° |
| 2026-05-05 19:10 | 41.01688 | -82.10715 | 38834 ft | 512 kts | 141° |
| 2026-05-05 19:10 | 40.96680 | -82.04007 | 38834 ft | 512 kts | 141° |
| 2026-05-05 19:11 | 40.91668 | -81.97307 | 38835 ft | 512 kts | 141° |
| 2026-05-05 19:11 | 40.86631 | -81.90572 | 38836 ft | 512 kts | 141° |
| 2026-05-05 19:12 | 40.84119 | -81.87227 | 38837 ft | 512 kts | 141° |
| 2026-05-05 19:13 | 40.83979 | -81.87041 | 38840 ft | 512 kts | 141° |
| 2026-05-05 19:14 | 40.82228 | -81.84487 | 38792 ft | 514 kts | 131° |
| 2026-05-05 19:15 | 40.80051 | -81.80842 | 38908 ft | 510 kts | 135° |
| 2026-05-05 19:15 | 40.77631 | -81.77372 | 38860 ft | 509 kts | 142° |
| 2026-05-05 19:15 | 40.72409 | -81.71192 | 38834 ft | 506 kts | 146° |
| 2026-05-05 19:16 | 40.67100 | -81.65057 | 38831 ft | 509 kts | 143° |
| 2026-05-05 19:16 | 40.62069 | -81.58440 | 38830 ft | 513 kts | 139° |
| 2026-05-05 19:17 | 40.57138 | -81.51627 | 38833 ft | 514 kts | 139° |
| 2026-05-05 19:17 | 40.52140 | -81.44917 | 38834 ft | 513 kts | 140° |
| 2026-05-05 19:18 | 40.47074 | -81.38316 | 38841 ft | 513 kts | 141° |
| 2026-05-05 19:18 | 40.41983 | -81.31729 | 38846 ft | 513 kts | 141° |
| 2026-05-05 19:19 | 40.36916 | -81.25134 | 38850 ft | 513 kts | 140° |
| 2026-05-05 19:19 | 40.31856 | -81.18525 | 38853 ft | 513 kts | 140° |
| 2026-05-05 19:20 | 40.26793 | -81.11935 | 38859 ft | 513 kts | 140° |
| 2026-05-05 19:20 | 40.21725 | -81.05386 | 38860 ft | 513 kts | 140° |
| 2026-05-05 19:21 | 40.16638 | -80.98825 | 38861 ft | 513 kts | 140° |
| 2026-05-05 19:21 | 40.11565 | -80.92280 | 38861 ft | 513 kts | 140° |
| 2026-05-05 19:22 | 40.06483 | -80.85737 | 38863 ft | 513 kts | 140° |
| 2026-05-05 19:22 | 40.01412 | -80.79192 | 38861 ft | 514 kts | 139° |
| 2026-05-05 19:23 | 39.96448 | -80.72462 | 38864 ft | 514 kts | 137° |
| 2026-05-05 19:23 | 39.91545 | -80.65679 | 38861 ft | 514 kts | 137° |
| 2026-05-05 19:24 | 39.86652 | -80.58985 | 38860 ft | 513 kts | 138° |
| 2026-05-05 19:24 | 39.81664 | -80.52264 | 38863 ft | 513 kts | 138° |
| 2026-05-05 19:25 | 39.76732 | -80.45630 | 38866 ft | 513 kts | 138° |
| 2026-05-05 19:25 | 39.71752 | -80.38924 | 38873 ft | 512 kts | 138° |
| 2026-05-05 19:26 | 39.66802 | -80.32273 | 38879 ft | 512 kts | 138° |
| 2026-05-05 19:26 | 39.61851 | -80.25636 | 38876 ft | 511 kts | 137° |
| 2026-05-05 19:27 | 39.59399 | -80.22358 | 37981 ft | 521 kts | 138° |
| 2026-05-05 19:27 | 39.56828 | -80.18929 | 36986 ft | 531 kts | 138° |
| 2026-05-05 19:27 | 39.54277 | -80.15522 | 36754 ft | 522 kts | 138° |
| 2026-05-05 19:27 | 39.51753 | -80.12150 | 36113 ft | 523 kts | 139° |
| 2026-05-05 19:28 | 39.49208 | -80.08761 | 35327 ft | 527 kts | 139° |
| 2026-05-05 19:28 | 39.46648 | -80.05363 | 34744 ft | 525 kts | 139° |
| 2026-05-05 19:28 | 39.44113 | -80.01998 | 34251 ft | 522 kts | 139° |
| 2026-05-05 19:28 | 39.41582 | -79.98637 | 33617 ft | 520 kts | 140° |
| 2026-05-05 19:29 | 39.39094 | -79.95332 | 33000 ft | 507 kts | 139° |
| 2026-05-05 19:29 | 39.36663 | -79.92098 | 32342 ft | 496 kts | 139° |
| 2026-05-05 19:29 | 39.34292 | -79.88941 | 31740 ft | 483 kts | 139° |
| 2026-05-05 19:29 | 39.32163 | -79.85784 | 31454 ft | 469 kts | 130° |
| 2026-05-05 19:30 | 39.30451 | -79.82147 | 30997 ft | 461 kts | 118° |
| 2026-05-05 19:30 | 39.29333 | -79.78309 | 30850 ft | 458 kts | 106° |
| 2026-05-05 19:30 | 39.28432 | -79.70153 | 30553 ft | 454 kts | 96° |
| 2026-05-05 19:31 | 39.28118 | -79.66170 | 30312 ft | 450 kts | 96° |
| 2026-05-05 19:31 | 39.27795 | -79.62171 | 30082 ft | 446 kts | 97° |
| 2026-05-05 19:31 | 39.27465 | -79.58161 | 29807 ft | 442 kts | 97° |
| 2026-05-05 19:31 | 39.27145 | -79.54227 | 29516 ft | 439 kts | 97° |
| 2026-05-05 19:32 | 39.26828 | -79.50326 | 29245 ft | 436 kts | 97° |
| 2026-05-05 19:32 | 39.26512 | -79.46448 | 28971 ft | 433 kts | 97° |
| 2026-05-05 19:32 | 39.26197 | -79.42596 | 28693 ft | 430 kts | 97° |
| 2026-05-05 19:32 | 39.25881 | -79.38771 | 28419 ft | 428 kts | 97° |
| 2026-05-05 19:33 | 39.25568 | -79.34969 | 28149 ft | 425 kts | 97° |
| 2026-05-05 19:33 | 39.25256 | -79.31177 | 27881 ft | 422 kts | 97° |
| 2026-05-05 19:33 | 39.24947 | -79.27420 | 27614 ft | 420 kts | 97° |
| 2026-05-05 19:33 | 39.24639 | -79.23690 | 27356 ft | 417 kts | 97° |
| 2026-05-05 19:34 | 39.24329 | -79.19985 | 27089 ft | 415 kts | 97° |
| 2026-05-05 19:34 | 39.24016 | -79.16296 | 26832 ft | 412 kts | 97° |
| 2026-05-05 19:34 | 39.23702 | -79.12626 | 26512 ft | 411 kts | 97° |
| 2026-05-05 19:35 | 39.23080 | -79.05324 | 25703 ft | 406 kts | 97° |
| 2026-05-05 19:35 | 39.22769 | -79.01707 | 25212 ft | 406 kts | 98° |
| 2026-05-05 19:35 | 39.22454 | -78.98114 | 24941 ft | 400 kts | 97° |
| 2026-05-05 19:35 | 39.22142 | -78.94574 | 24462 ft | 396 kts | 98° |
| 2026-05-05 19:36 | 39.21820 | -78.91063 | 23988 ft | 392 kts | 98° |
| 2026-05-05 19:36 | 39.21488 | -78.87596 | 23535 ft | 388 kts | 98° |
| 2026-05-05 19:36 | 39.21149 | -78.84151 | 23011 ft | 384 kts | 99° |
| 2026-05-05 19:36 | 39.20812 | -78.80753 | 22443 ft | 381 kts | 99° |
| 2026-05-05 19:37 | 39.20476 | -78.77387 | 22020 ft | 376 kts | 99° |
| 2026-05-05 19:37 | 39.20144 | -78.74054 | 21603 ft | 373 kts | 99° |
| 2026-05-05 19:37 | 39.19815 | -78.70748 | 21185 ft | 371 kts | 99° |
| 2026-05-05 19:37 | 39.19491 | -78.67453 | 20775 ft | 370 kts | 99° |
| 2026-05-05 19:38 | 39.19173 | -78.64170 | 20366 ft | 368 kts | 99° |
| 2026-05-05 19:38 | 39.18853 | -78.60900 | 19946 ft | 367 kts | 99° |
| 2026-05-05 19:38 | 39.18530 | -78.57648 | 19538 ft | 365 kts | 99° |
| 2026-05-05 19:38 | 39.18208 | -78.54408 | 19130 ft | 363 kts | 99° |
| 2026-05-05 19:39 | 39.17885 | -78.51189 | 18729 ft | 362 kts | 100° |
| 2026-05-05 19:39 | 39.17563 | -78.47984 | 18323 ft | 360 kts | 100° |
| 2026-05-05 19:39 | 39.17244 | -78.44788 | 17971 ft | 358 kts | 100° |
| 2026-05-05 19:39 | 39.16931 | -78.41651 | 17569 ft | 357 kts | 100° |
| 2026-05-05 19:40 | 39.16614 | -78.38485 | 17173 ft | 355 kts | 100° |
| 2026-05-05 19:40 | 39.16123 | -78.35396 | 16799 ft | 350 kts | 110° |
| 2026-05-05 19:40 | 39.15377 | -78.32415 | 16538 ft | 348 kts | 111° |
| 2026-05-05 19:40 | 39.14634 | -78.29452 | 16241 ft | 347 kts | 111° |
| 2026-05-05 19:41 | 39.13900 | -78.26500 | 15955 ft | 346 kts | 111° |
| 2026-05-05 19:41 | 39.13172 | -78.23552 | 15673 ft | 345 kts | 111° |
| 2026-05-05 19:41 | 39.12444 | -78.20603 | 15386 ft | 344 kts | 111° |
| 2026-05-05 19:41 | 39.11721 | -78.17675 | 15099 ft | 343 kts | 111° |
| 2026-05-05 19:42 | 39.11000 | -78.14774 | 14818 ft | 343 kts | 111° |
| 2026-05-05 19:42 | 39.10264 | -78.11827 | 14528 ft | 342 kts | 111° |
| 2026-05-05 19:42 | 39.09531 | -78.08913 | 14241 ft | 341 kts | 111° |
| 2026-05-05 19:42 | 39.08793 | -78.06011 | 13961 ft | 341 kts | 111° |
| 2026-05-05 19:43 | 39.08053 | -78.03115 | 13669 ft | 340 kts | 111° |
| 2026-05-05 19:43 | 39.07312 | -78.00225 | 13371 ft | 339 kts | 112° |
| 2026-05-05 19:43 | 39.06571 | -77.97351 | 13090 ft | 338 kts | 112° |
| 2026-05-05 19:43 | 39.05833 | -77.94484 | 12811 ft | 337 kts | 112° |
| 2026-05-05 19:44 | 39.05099 | -77.91630 | 12529 ft | 336 kts | 112° |
| 2026-05-05 19:44 | 39.04377 | -77.88820 | 12258 ft | 334 kts | 112° |
| 2026-05-05 19:44 | 39.03651 | -77.85993 | 12012 ft | 332 kts | 112° |
| 2026-05-05 19:44 | 39.02927 | -77.83177 | 11721 ft | 331 kts | 112° |
| 2026-05-05 19:45 | 39.02205 | -77.80370 | 11447 ft | 330 kts | 112° |
| 2026-05-05 19:45 | 39.01729 | -77.78517 | 11270 ft | 328 kts | 112° |